Mislata, Spain
Current Conditions -  °F | °C
As of 3:30 PM on Tuesday 21 Oct 2014 (Local Time) from LEVC Reporting Station
Few Clouds Few Clouds  
Wind Chill: 95°   Ceiling: Unl
Heat Index: 95°   Visibility: 6mi
Dew Point: 45°   Wind: 9mph
Humidity: 18%   Direction: 260°W
Pressure: 30.12"   Gusts: NA
Location:  39.48°N, 0.42°W
Report Text: LEVC 211330Z 26008KT 230V300 9999 FEW045 35/07 Q1020 NOSIG
Loading
Personal Weather Stations






























Interactive Weather Map
Tropical Storm Tracking
New forecast layout! Learn more

10-Day Weather Forecast

Advertisements
Track Severe Weather on mobile